Terminal Aerodrome Forecast
Issued by NWS Charleston, WV

Home | Current Version | Previous Version | Text Only | Print | Product List | Glossary On
Versions: 1 2 3 4 5 6 7 8 9 10 11 12 13 14 15 16 17 18 19 20 21 22 23 24 25 26 27 28 29 30
013
FTUS41 KRLX 300304 AAA
TAFEKN
TAF AMD
KEKN 300304Z 3003/3024 00000KT P6SM SCT040
     FM300600 00000KT 4SM BR BKN035
     FM300800 00000KT 1SM BR BKN003
     FM301300 00000KT 2SM BR BKN008
     FM301400 00000KT 3SM BR BKN015
     FM301500 00000KT P6SM BKN035
     FM301700 VRB03KT P6SM VCTS BKN040CB=

USA.gov is the U.S. government's official web portal to all federal, state and local government web resources and services.